sensor_id;sensor_type;location;lat;lon;timestamp;temperature;humidity
35607;DHT22;21729;58.392;15.656;2024-03-08T00:02:15;-2.50;99.90
35607;DHT22;21729;58.392;15.656;2024-03-08T00:04:42;-2.50;99.90
35607;DHT22;21729;58.392;15.656;2024-03-08T00:07:10;-2.50;99.90
35607;DHT22;21729;58.392;15.656;2024-03-08T00:09:39;-2.50;99.90
35607;DHT22;21729;58.392;15.656;2024-03-08T00:12:06;-2.40;99.90
35607;DHT22;21729;58.392;15.656;2024-03-08T00:14:33;-2.40;99.90
35607;DHT22;21729;58.392;15.656;2024-03-08T00:17:02;-2.40;99.90
35607;DHT22;21729;58.392;15.656;2024-03-08T00:19:29;-2.40;99.90
35607;DHT22;21729;58.392;15.656;2024-03-08T00:21:56;-2.40;99.90
35607;DHT22;21729;58.392;15.656;2024-03-08T00:24:23;-2.50;99.90
35607;DHT22;21729;58.392;15.656;2024-03-08T00:26:50;-2.50;99.90
35607;DHT22;21729;58.392;15.656;2024-03-08T00:29:19;-2.60;99.90
35607;DHT22;21729;58.392;15.656;2024-03-08T00:31:47;-2.40;99.90
35607;DHT22;21729;58.392;15.656;2024-03-08T00:34:15;-2.60;99.90
35607;DHT22;21729;58.392;15.656;2024-03-08T00:36:42;-2.60;99.90
35607;DHT22;21729;58.392;15.656;2024-03-08T00:39:09;-2.60;99.90
35607;DHT22;21729;58.392;15.656;2024-03-08T00:41:37;-2.70;99.90
35607;DHT22;21729;58.392;15.656;2024-03-08T00:44:04;-2.80;99.90
35607;DHT22;21729;58.392;15.656;2024-03-08T00:46:31;-2.80;99.90
35607;DHT22;21729;58.392;15.656;2024-03-08T00:48:59;-2.80;99.90
35607;DHT22;21729;58.392;15.656;2024-03-08T00:51:28;-2.70;99.90
35607;DHT22;21729;58.392;15.656;2024-03-08T00:53:55;-2.70;99.90
35607;DHT22;21729;58.392;15.656;2024-03-08T00:56:22;-2.70;99.90
35607;DHT22;21729;58.392;15.656;2024-03-08T00:58:50;-2.70;99.90
35607;DHT22;21729;58.392;15.656;2024-03-08T01:01:18;-2.70;99.90
35607;DHT22;21729;58.392;15.656;2024-03-08T01:03:46;-2.70;99.90
35607;DHT22;21729;58.392;15.656;2024-03-08T01:06:14;-2.80;99.90
35607;DHT22;21729;58.392;15.656;2024-03-08T01:08:43;-2.80;99.90
35607;DHT22;21729;58.392;15.656;2024-03-08T01:11:12;-2.80;99.90
35607;DHT22;21729;58.392;15.656;2024-03-08T01:13:39;-2.90;99.90
35607;DHT22;21729;58.392;15.656;2024-03-08T01:16:07;-2.90;99.90
35607;DHT22;21729;58.392;15.656;2024-03-08T01:18:34;-2.90;99.90
35607;DHT22;21729;58.392;15.656;2024-03-08T01:21:01;-2.90;99.90
35607;DHT22;21729;58.392;15.656;2024-03-08T01:23:28;-2.90;99.90
35607;DHT22;21729;58.392;15.656;2024-03-08T01:25:56;-3.00;99.90
35607;DHT22;21729;58.392;15.656;2024-03-08T01:28:23;-2.90;99.90
35607;DHT22;21729;58.392;15.656;2024-03-08T01:30:51;-2.80;99.90
35607;DHT22;21729;58.392;15.656;2024-03-08T01:33:21;-2.50;99.90
35607;DHT22;21729;58.392;15.656;2024-03-08T01:35:48;-2.80;99.90
35607;DHT22;21729;58.392;15.656;2024-03-08T01:38:15;-2.90;99.90
35607;DHT22;21729;58.392;15.656;2024-03-08T01:40:42;-2.90;99.90
35607;DHT22;21729;58.392;15.656;2024-03-08T01:43:19;-3.00;99.90
35607;DHT22;21729;58.392;15.656;2024-03-08T01:45:46;-3.00;99.90
35607;DHT22;21729;58.392;15.656;2024-03-08T01:48:14;-3.10;99.90
35607;DHT22;21729;58.392;15.656;2024-03-08T01:50:41;-3.00;99.90
35607;DHT22;21729;58.392;15.656;2024-03-08T01:53:08;-3.00;99.90
35607;DHT22;21729;58.392;15.656;2024-03-08T01:55:38;-3.10;99.90
35607;DHT22;21729;58.392;15.656;2024-03-08T01:58:05;-3.20;99.90
35607;DHT22;21729;58.392;15.656;2024-03-08T02:00:34;-3.20;99.90
35607;DHT22;21729;58.392;15.656;2024-03-08T02:03:02;-3.20;99.90
35607;DHT22;21729;58.392;15.656;2024-03-08T02:05:29;-3.20;99.90
35607;DHT22;21729;58.392;15.656;2024-03-08T02:07:56;-3.10;99.90
35607;DHT22;21729;58.392;15.656;2024-03-08T02:10:24;-3.20;99.90
35607;DHT22;21729;58.392;15.656;2024-03-08T02:12:51;-3.20;99.90
35607;DHT22;21729;58.392;15.656;2024-03-08T02:15:18;-3.30;99.90
35607;DHT22;21729;58.392;15.656;2024-03-08T02:17:47;-3.30;99.90
35607;DHT22;21729;58.392;15.656;2024-03-08T02:20:14;-3.20;99.90
35607;DHT22;21729;58.392;15.656;2024-03-08T02:22:43;-3.30;99.90
35607;DHT22;21729;58.392;15.656;2024-03-08T02:25:10;-3.30;99.90
35607;DHT22;21729;58.392;15.656;2024-03-08T02:27:38;-3.30;99.90
35607;DHT22;21729;58.392;15.656;2024-03-08T02:30:06;-3.30;99.90
35607;DHT22;21729;58.392;15.656;2024-03-08T02:32:33;-3.30;99.90
35607;DHT22;21729;58.392;15.656;2024-03-08T02:35:00;-3.30;99.90
35607;DHT22;21729;58.392;15.656;2024-03-08T02:37:27;-3.30;99.90
35607;DHT22;21729;58.392;15.656;2024-03-08T02:39:56;-3.40;99.90
35607;DHT22;21729;58.392;15.656;2024-03-08T02:42:23;-3.40;99.90
35607;DHT22;21729;58.392;15.656;2024-03-08T02:44:51;-3.50;99.90
35607;DHT22;21729;58.392;15.656;2024-03-08T02:47:18;-3.50;99.90
35607;DHT22;21729;58.392;15.656;2024-03-08T02:49:47;-3.60;99.90
35607;DHT22;21729;58.392;15.656;2024-03-08T02:52:15;-3.50;99.90
35607;DHT22;21729;58.392;15.656;2024-03-08T02:54:43;-3.40;99.90
35607;DHT22;21729;58.392;15.656;2024-03-08T02:57:13;-3.50;99.90
35607;DHT22;21729;58.392;15.656;2024-03-08T02:59:40;-3.50;99.90
35607;DHT22;21729;58.392;15.656;2024-03-08T03:02:07;-3.50;99.90
35607;DHT22;21729;58.392;15.656;2024-03-08T03:04:36;-3.50;99.90
35607;DHT22;21729;58.392;15.656;2024-03-08T03:07:03;-3.50;99.90
35607;DHT22;21729;58.392;15.656;2024-03-08T03:09:31;-3.50;99.90
35607;DHT22;21729;58.392;15.656;2024-03-08T03:11:58;-3.50;99.90
35607;DHT22;21729;58.392;15.656;2024-03-08T03:14:27;-3.50;99.90
35607;DHT22;21729;58.392;15.656;2024-03-08T03:16:54;-3.60;99.90
35607;DHT22;21729;58.392;15.656;2024-03-08T03:19:21;-3.70;99.90
35607;DHT22;21729;58.392;15.656;2024-03-08T03:21:48;-3.70;99.90
35607;DHT22;21729;58.392;15.656;2024-03-08T03:24:15;-3.70;99.90
35607;DHT22;21729;58.392;15.656;2024-03-08T03:26:43;-3.70;99.90
35607;DHT22;21729;58.392;15.656;2024-03-08T03:29:11;-3.70;99.90
35607;DHT22;21729;58.392;15.656;2024-03-08T03:31:40;-3.60;99.90
35607;DHT22;21729;58.392;15.656;2024-03-08T03:34:07;-3.70;99.90
35607;DHT22;21729;58.392;15.656;2024-03-08T03:36:34;-3.70;99.90
35607;DHT22;21729;58.392;15.656;2024-03-08T03:39:03;-3.70;99.90
35607;DHT22;21729;58.392;15.656;2024-03-08T03:41:36;-3.80;99.90
35607;DHT22;21729;58.392;15.656;2024-03-08T03:44:04;-3.70;99.90
35607;DHT22;21729;58.392;15.656;2024-03-08T03:46:32;-3.70;99.90
35607;DHT22;21729;58.392;15.656;2024-03-08T03:49:01;-3.80;99.90
35607;DHT22;21729;58.392;15.656;2024-03-08T03:51:29;-3.80;99.90
35607;DHT22;21729;58.392;15.656;2024-03-08T03:53:56;-3.80;99.90
35607;DHT22;21729;58.392;15.656;2024-03-08T03:56:25;-3.80;99.90
35607;DHT22;21729;58.392;15.656;2024-03-08T03:58:53;-3.80;99.90
35607;DHT22;21729;58.392;15.656;2024-03-08T04:01:20;-3.80;99.90
35607;DHT22;21729;58.392;15.656;2024-03-08T04:03:47;-3.80;99.90
35607;DHT22;21729;58.392;15.656;2024-03-08T04:06:15;-3.90;99.90
35607;DHT22;21729;58.392;15.656;2024-03-08T04:08:43;-3.90;99.90
35607;DHT22;21729;58.392;15.656;2024-03-08T04:11:10;-3.90;99.90
35607;DHT22;21729;58.392;15.656;2024-03-08T04:13:37;-3.90;99.90
35607;DHT22;21729;58.392;15.656;2024-03-08T04:16:05;-3.90;99.90
35607;DHT22;21729;58.392;15.656;2024-03-08T04:18:34;-3.90;99.90
35607;DHT22;21729;58.392;15.656;2024-03-08T04:21:04;-3.90;99.90
35607;DHT22;21729;58.392;15.656;2024-03-08T04:23:34;-4.00;99.90
35607;DHT22;21729;58.392;15.656;2024-03-08T04:26:02;-4.10;99.90
35607;DHT22;21729;58.392;15.656;2024-03-08T04:28:31;-4.00;99.90
35607;DHT22;21729;58.392;15.656;2024-03-08T04:30:58;-4.00;99.90
35607;DHT22;21729;58.392;15.656;2024-03-08T04:33:26;-4.00;99.90
35607;DHT22;21729;58.392;15.656;2024-03-08T04:35:53;-4.10;99.90
35607;DHT22;21729;58.392;15.656;2024-03-08T04:38:20;-4.00;99.90
35607;DHT22;21729;58.392;15.656;2024-03-08T04:40:49;-4.20;99.90
35607;DHT22;21729;58.392;15.656;2024-03-08T04:43:17;-4.20;99.90
35607;DHT22;21729;58.392;15.656;2024-03-08T04:45:46;-4.10;99.90
35607;DHT22;21729;58.392;15.656;2024-03-08T04:48:14;-4.10;99.90
35607;DHT22;21729;58.392;15.656;2024-03-08T04:50:41;-4.10;99.90
35607;DHT22;21729;58.392;15.656;2024-03-08T04:53:08;-4.20;99.90
35607;DHT22;21729;58.392;15.656;2024-03-08T04:55:35;-4.20;99.90
35607;DHT22;21729;58.392;15.656;2024-03-08T04:58:04;-4.20;99.90
35607;DHT22;21729;58.392;15.656;2024-03-08T05:00:32;-4.20;99.90
35607;DHT22;21729;58.392;15.656;2024-03-08T05:02:59;-4.20;99.90
35607;DHT22;21729;58.392;15.656;2024-03-08T05:05:26;-3.90;99.90
35607;DHT22;21729;58.392;15.656;2024-03-08T05:07:55;-4.20;99.90
35607;DHT22;21729;58.392;15.656;2024-03-08T05:10:22;-4.20;99.90
35607;DHT22;21729;58.392;15.656;2024-03-08T05:12:49;-4.20;99.90
35607;DHT22;21729;58.392;15.656;2024-03-08T05:15:17;-4.20;99.90
35607;DHT22;21729;58.392;15.656;2024-03-08T05:17:46;-4.20;90.40
35607;DHT22;21729;58.392;15.656;2024-03-08T05:20:13;-4.20;81.00
35607;DHT22;21729;58.392;15.656;2024-03-08T05:22:40;-4.20;94.30
35607;DHT22;21729;58.392;15.656;2024-03-08T05:25:08;-4.20;81.10
35607;DHT22;21729;58.392;15.656;2024-03-08T05:27:36;-4.30;73.90
35607;DHT22;21729;58.392;15.656;2024-03-08T05:30:03;-4.10;53.90
35607;DHT22;21729;58.392;15.656;2024-03-08T05:32:32;-4.40;62.20
35607;DHT22;21729;58.392;15.656;2024-03-08T05:34:59;-4.30;84.80
35607;DHT22;21729;58.392;15.656;2024-03-08T05:37:26;-4.30;67.70
35607;DHT22;21729;58.392;15.656;2024-03-08T05:39:53;-4.40;75.10
35607;DHT22;21729;58.392;15.656;2024-03-08T05:42:20;-4.40;68.50
35607;DHT22;21729;58.392;15.656;2024-03-08T05:44:47;-4.40;77.60
35607;DHT22;21729;58.392;15.656;2024-03-08T05:47:15;-4.30;75.60
35607;DHT22;21729;58.392;15.656;2024-03-08T05:49:45;-4.30;81.40
35607;DHT22;21729;58.392;15.656;2024-03-08T05:52:12;-4.20;96.70
35607;DHT22;21729;58.392;15.656;2024-03-08T05:54:40;-4.20;73.70
35607;DHT22;21729;58.392;15.656;2024-03-08T05:57:08;-4.20;49.20
35607;DHT22;21729;58.392;15.656;2024-03-08T05:59:35;-4.20;49.30
35607;DHT22;21729;58.392;15.656;2024-03-08T06:02:02;-4.20;38.90
35607;DHT22;21729;58.392;15.656;2024-03-08T06:04:30;-4.30;56.50
35607;DHT22;21729;58.392;15.656;2024-03-08T06:06:58;-4.20;58.50
35607;DHT22;21729;58.392;15.656;2024-03-08T06:09:25;-4.20;48.50
35607;DHT22;21729;58.392;15.656;2024-03-08T06:11:52;-4.20;52.80
35607;DHT22;21729;58.392;15.656;2024-03-08T06:14:20;-4.10;61.90
35607;DHT22;21729;58.392;15.656;2024-03-08T06:16:49;-4.00;47.10
35607;DHT22;21729;58.392;15.656;2024-03-08T06:19:16;-4.10;15.10
35607;DHT22;21729;58.392;15.656;2024-03-08T06:21:45;-4.20;11.90
35607;DHT22;21729;58.392;15.656;2024-03-08T06:24:14;-4.10;13.30
35607;DHT22;21729;58.392;15.656;2024-03-08T06:26:41;-4.00;20.50
35607;DHT22;21729;58.392;15.656;2024-03-08T06:29:08;-4.00;25.10
35607;DHT22;21729;58.392;15.656;2024-03-08T06:31:36;-4.00;14.20
35607;DHT22;21729;58.392;15.656;2024-03-08T06:34:04;-4.00;32.50
35607;DHT22;21729;58.392;15.656;2024-03-08T06:36:33;-3.90;35.90
35607;DHT22;21729;58.392;15.656;2024-03-08T06:39:03;-3.80;44.80
35607;DHT22;21729;58.392;15.656;2024-03-08T06:41:36;-3.70;37.40
35607;DHT22;21729;58.392;15.656;2024-03-08T06:44:03;-3.70;15.10
35607;DHT22;21729;58.392;15.656;2024-03-08T06:46:30;-3.50;30.50
35607;DHT22;21729;58.392;15.656;2024-03-08T06:48:57;-3.30;1.00
35607;DHT22;21729;58.392;15.656;2024-03-08T06:51:24;-3.40;1.00
35607;DHT22;21729;58.392;15.656;2024-03-08T06:53:51;-2.90;1.00
35607;DHT22;21729;58.392;15.656;2024-03-08T06:56:19;-3.20;1.00
35607;DHT22;21729;58.392;15.656;2024-03-08T06:58:47;-3.00;1.00
35607;DHT22;21729;58.392;15.656;2024-03-08T07:01:15;-2.90;1.00
35607;DHT22;21729;58.392;15.656;2024-03-08T07:03:43;-2.80;1.00
35607;DHT22;21729;58.392;15.656;2024-03-08T07:06:10;-2.70;1.00
35607;DHT22;21729;58.392;15.656;2024-03-08T07:08:37;-2.60;1.00
35607;DHT22;21729;58.392;15.656;2024-03-08T07:11:04;-2.40;1.00
35607;DHT22;21729;58.392;15.656;2024-03-08T07:13:32;-2.30;1.00
35607;DHT22;21729;58.392;15.656;2024-03-08T07:16:00;-2.00;1.00
35607;DHT22;21729;58.392;15.656;2024-03-08T07:18:27;-1.80;1.00
35607;DHT22;21729;58.392;15.656;2024-03-08T07:20:55;-1.60;1.00
35607;DHT22;21729;58.392;15.656;2024-03-08T07:23:22;-1.50;1.00
35607;DHT22;21729;58.392;15.656;2024-03-08T07:26:07;-1.30;1.00
35607;DHT22;21729;58.392;15.656;2024-03-08T07:28:34;-1.20;1.00
35607;DHT22;21729;58.392;15.656;2024-03-08T07:31:02;-1.10;1.00
35607;DHT22;21729;58.392;15.656;2024-03-08T07:33:42;-1.10;99.90
35607;DHT22;21729;58.392;15.656;2024-03-08T07:36:09;-1.00;1.00
35607;DHT22;21729;58.392;15.656;2024-03-08T07:38:37;-0.70;1.00
35607;DHT22;21729;58.392;15.656;2024-03-08T07:41:04;-0.50;1.00
35607;DHT22;21729;58.392;15.656;2024-03-08T07:43:31;-0.40;99.90
35607;DHT22;21729;58.392;15.656;2024-03-08T07:45:58;-0.40;99.90
35607;DHT22;21729;58.392;15.656;2024-03-08T07:48:26;-0.20;99.90
35607;DHT22;21729;58.392;15.656;2024-03-08T07:50:54;0.00;99.90
35607;DHT22;21729;58.392;15.656;2024-03-08T07:53:21;0.00;99.90
35607;DHT22;21729;58.392;15.656;2024-03-08T07:55:50;0.20;99.90
35607;DHT22;21729;58.392;15.656;2024-03-08T07:58:17;0.30;99.90
35607;DHT22;21729;58.392;15.656;2024-03-08T08:00:44;0.40;99.90
35607;DHT22;21729;58.392;15.656;2024-03-08T08:03:11;0.50;99.90
35607;DHT22;21729;58.392;15.656;2024-03-08T08:05:39;0.60;99.90
35607;DHT22;21729;58.392;15.656;2024-03-08T08:08:08;1.50;99.90
35607;DHT22;21729;58.392;15.656;2024-03-08T08:10:36;2.30;59.40
35607;DHT22;21729;58.392;15.656;2024-03-08T08:13:03;3.30;1.00
35607;DHT22;21729;58.392;15.656;2024-03-08T08:15:31;4.40;1.00
35607;DHT22;21729;58.392;15.656;2024-03-08T08:18:00;5.60;1.00
35607;DHT22;21729;58.392;15.656;2024-03-08T08:20:28;5.90;1.00
35607;DHT22;21729;58.392;15.656;2024-03-08T08:22:57;6.60;1.00
35607;DHT22;21729;58.392;15.656;2024-03-08T08:25:24;6.90;1.00
35607;DHT22;21729;58.392;15.656;2024-03-08T08:27:52;6.80;99.90
35607;DHT22;21729;58.392;15.656;2024-03-08T08:30:19;6.70;99.90
35607;DHT22;21729;58.392;15.656;2024-03-08T08:32:46;6.50;99.90
35607;DHT22;21729;58.392;15.656;2024-03-08T08:35:14;6.00;99.90
35607;DHT22;21729;58.392;15.656;2024-03-08T08:37:41;5.70;99.90
35607;DHT22;21729;58.392;15.656;2024-03-08T08:40:12;5.10;1.00
35607;DHT22;21729;58.392;15.656;2024-03-08T08:42:43;4.80;1.00
35607;DHT22;21729;58.392;15.656;2024-03-08T08:45:11;4.50;1.00
35607;DHT22;21729;58.392;15.656;2024-03-08T08:47:38;4.10;1.00
35607;DHT22;21729;58.392;15.656;2024-03-08T08:50:09;4.00;1.00
35607;DHT22;21729;58.392;15.656;2024-03-08T08:52:37;4.20;1.00
35607;DHT22;21729;58.392;15.656;2024-03-08T08:55:05;4.00;1.00
35607;DHT22;21729;58.392;15.656;2024-03-08T08:57:34;3.90;1.00
35607;DHT22;21729;58.392;15.656;2024-03-08T09:00:02;4.10;1.00
35607;DHT22;21729;58.392;15.656;2024-03-08T09:02:32;4.10;1.00
35607;DHT22;21729;58.392;15.656;2024-03-08T09:04:59;4.30;1.00
35607;DHT22;21729;58.392;15.656;2024-03-08T09:07:27;4.50;1.00
35607;DHT22;21729;58.392;15.656;2024-03-08T09:09:54;4.40;1.00
35607;DHT22;21729;58.392;15.656;2024-03-08T09:12:23;4.30;1.00
35607;DHT22;21729;58.392;15.656;2024-03-08T09:14:52;4.50;1.00
35607;DHT22;21729;58.392;15.656;2024-03-08T09:17:19;4.60;1.00
35607;DHT22;21729;58.392;15.656;2024-03-08T09:19:46;4.60;1.00
35607;DHT22;21729;58.392;15.656;2024-03-08T09:22:14;4.60;1.00
35607;DHT22;21729;58.392;15.656;2024-03-08T09:24:41;4.40;1.00
35607;DHT22;21729;58.392;15.656;2024-03-08T09:27:09;5.00;1.00
35607;DHT22;21729;58.392;15.656;2024-03-08T09:29:36;4.90;1.00
35607;DHT22;21729;58.392;15.656;2024-03-08T09:32:05;5.20;1.00
35607;DHT22;21729;58.392;15.656;2024-03-08T09:34:33;5.70;1.00
35607;DHT22;21729;58.392;15.656;2024-03-08T09:37:00;5.30;1.00
35607;DHT22;21729;58.392;15.656;2024-03-08T09:39:30;5.20;1.00
35607;DHT22;21729;58.392;15.656;2024-03-08T09:41:57;5.40;1.00
35607;DHT22;21729;58.392;15.656;2024-03-08T09:44:24;5.70;1.00
35607;DHT22;21729;58.392;15.656;2024-03-08T09:46:54;5.70;99.90
35607;DHT22;21729;58.392;15.656;2024-03-08T09:49:25;6.00;99.90
35607;DHT22;21729;58.392;15.656;2024-03-08T09:51:52;5.90;1.00
35607;DHT22;21729;58.392;15.656;2024-03-08T09:54:19;6.10;99.90
35607;DHT22;21729;58.392;15.656;2024-03-08T09:56:48;6.60;99.90
35607;DHT22;21729;58.392;15.656;2024-03-08T09:59:19;6.50;99.90
35607;DHT22;21729;58.392;15.656;2024-03-08T10:02:12;6.70;99.90
35607;DHT22;21729;58.392;15.656;2024-03-08T10:04:42;6.70;99.90
35607;DHT22;21729;58.392;15.656;2024-03-08T10:07:12;6.90;99.90
35607;DHT22;21729;58.392;15.656;2024-03-08T10:09:39;7.10;99.90
35607;DHT22;21729;58.392;15.656;2024-03-08T10:12:07;7.10;99.90
35607;DHT22;21729;58.392;15.656;2024-03-08T10:14:40;7.30;99.90
35607;DHT22;21729;58.392;15.656;2024-03-08T10:17:08;7.20;99.90
35607;DHT22;21729;58.392;15.656;2024-03-08T10:19:35;7.10;99.90
35607;DHT22;21729;58.392;15.656;2024-03-08T10:22:03;7.20;99.90
35607;DHT22;21729;58.392;15.656;2024-03-08T10:24:32;7.30;99.90
35607;DHT22;21729;58.392;15.656;2024-03-08T10:27:01;7.40;99.90
35607;DHT22;21729;58.392;15.656;2024-03-08T10:29:31;7.80;99.90
35607;DHT22;21729;58.392;15.656;2024-03-08T10:31:58;6.90;99.90
35607;DHT22;21729;58.392;15.656;2024-03-08T10:34:25;6.60;99.90
35607;DHT22;21729;58.392;15.656;2024-03-08T10:36:52;6.60;99.90
35607;DHT22;21729;58.392;15.656;2024-03-08T10:39:24;6.30;99.90
35607;DHT22;21729;58.392;15.656;2024-03-08T10:41:56;5.90;99.90
35607;DHT22;21729;58.392;15.656;2024-03-08T10:44:44;5.70;99.90
35607;DHT22;21729;58.392;15.656;2024-03-08T10:47:18;5.50;99.90
35607;DHT22;21729;58.392;15.656;2024-03-08T10:49:54;5.20;99.90
35607;DHT22;21729;58.392;15.656;2024-03-08T10:52:22;5.00;99.90
35607;DHT22;21729;58.392;15.656;2024-03-08T10:54:51;4.90;99.90
35607;DHT22;21729;58.392;15.656;2024-03-08T10:57:19;4.80;99.90
35607;DHT22;21729;58.392;15.656;2024-03-08T10:59:49;4.80;99.90
35607;DHT22;21729;58.392;15.656;2024-03-08T11:02:18;4.60;1.00
35607;DHT22;21729;58.392;15.656;2024-03-08T11:04:46;4.50;1.00
35607;DHT22;21729;58.392;15.656;2024-03-08T11:07:14;4.40;99.90
35607;DHT22;21729;58.392;15.656;2024-03-08T11:09:47;4.40;99.90
35607;DHT22;21729;58.392;15.656;2024-03-08T11:12:21;4.50;99.90
35607;DHT22;21729;58.392;15.656;2024-03-08T11:14:51;4.70;99.90
35607;DHT22;21729;58.392;15.656;2024-03-08T11:17:27;4.70;1.00
35607;DHT22;21729;58.392;15.656;2024-03-08T11:20:10;4.80;1.00
35607;DHT22;21729;58.392;15.656;2024-03-08T11:22:41;4.80;99.90
35607;DHT22;21729;58.392;15.656;2024-03-08T11:25:31;5.10;1.40
35607;DHT22;21729;58.392;15.656;2024-03-08T11:28:14;5.10;99.90
35607;DHT22;21729;58.392;15.656;2024-03-08T11:30:44;5.20;99.90
35607;DHT22;21729;58.392;15.656;2024-03-08T11:33:12;5.40;1.00
35607;DHT22;21729;58.392;15.656;2024-03-08T11:35:40;5.50;99.90
35607;DHT22;21729;58.392;15.656;2024-03-08T11:38:12;5.30;99.90
35607;DHT22;21729;58.392;15.656;2024-03-08T11:40:40;5.20;99.90
35607;DHT22;21729;58.392;15.656;2024-03-08T11:43:09;5.40;1.00
35607;DHT22;21729;58.392;15.656;2024-03-08T11:45:36;5.60;99.90
35607;DHT22;21729;58.392;15.656;2024-03-08T11:48:04;5.50;99.90
35607;DHT22;21729;58.392;15.656;2024-03-08T11:50:32;5.50;99.90
35607;DHT22;21729;58.392;15.656;2024-03-08T11:53:03;5.60;99.90
35607;DHT22;21729;58.392;15.656;2024-03-08T11:55:31;5.70;99.90
35607;DHT22;21729;58.392;15.656;2024-03-08T11:58:04;5.80;99.90
35607;DHT22;21729;58.392;15.656;2024-03-08T12:00:35;5.70;99.90
35607;DHT22;21729;58.392;15.656;2024-03-08T12:03:04;5.70;99.90
35607;DHT22;21729;58.392;15.656;2024-03-08T12:05:32;5.80;99.90
35607;DHT22;21729;58.392;15.656;2024-03-08T12:08:00;6.00;99.90
35607;DHT22;21729;58.392;15.656;2024-03-08T12:10:27;6.00;99.90
35607;DHT22;21729;58.392;15.656;2024-03-08T12:12:57;6.20;99.90
35607;DHT22;21729;58.392;15.656;2024-03-08T12:15:25;6.10;99.90
35607;DHT22;21729;58.392;15.656;2024-03-08T12:17:55;6.00;99.90
35607;DHT22;21729;58.392;15.656;2024-03-08T12:20:23;6.10;99.90
35607;DHT22;21729;58.392;15.656;2024-03-08T12:22:51;6.00;99.90
35607;DHT22;21729;58.392;15.656;2024-03-08T12:25:19;6.10;99.90
35607;DHT22;21729;58.392;15.656;2024-03-08T12:27:46;6.20;99.90
35607;DHT22;21729;58.392;15.656;2024-03-08T12:30:21;6.30;99.90
35607;DHT22;21729;58.392;15.656;2024-03-08T12:32:52;6.30;99.90
35607;DHT22;21729;58.392;15.656;2024-03-08T12:35:22;6.30;99.90
35607;DHT22;21729;58.392;15.656;2024-03-08T12:37:51;6.20;99.90
35607;DHT22;21729;58.392;15.656;2024-03-08T12:40:19;6.30;99.90
35607;DHT22;21729;58.392;15.656;2024-03-08T12:42:47;6.40;99.90
35607;DHT22;21729;58.392;15.656;2024-03-08T12:45:14;6.40;99.90
35607;DHT22;21729;58.392;15.656;2024-03-08T12:47:41;6.40;99.90
35607;DHT22;21729;58.392;15.656;2024-03-08T12:50:10;6.30;99.90
35607;DHT22;21729;58.392;15.656;2024-03-08T12:52:39;6.40;99.90
35607;DHT22;21729;58.392;15.656;2024-03-08T12:55:06;6.40;99.90
35607;DHT22;21729;58.392;15.656;2024-03-08T12:57:35;6.30;99.90
35607;DHT22;21729;58.392;15.656;2024-03-08T13:00:04;6.30;99.90
35607;DHT22;21729;58.392;15.656;2024-03-08T13:02:37;6.30;99.90
35607;DHT22;21729;58.392;15.656;2024-03-08T13:05:05;6.30;99.90
35607;DHT22;21729;58.392;15.656;2024-03-08T13:07:35;6.20;99.90
35607;DHT22;21729;58.392;15.656;2024-03-08T13:10:06;6.00;99.90
35607;DHT22;21729;58.392;15.656;2024-03-08T13:12:34;6.00;99.90
35607;DHT22;21729;58.392;15.656;2024-03-08T13:15:04;6.00;99.90
35607;DHT22;21729;58.392;15.656;2024-03-08T13:17:32;6.00;99.90
35607;DHT22;21729;58.392;15.656;2024-03-08T13:19:59;6.10;99.90
35607;DHT22;21729;58.392;15.656;2024-03-08T13:22:26;6.00;99.90
35607;DHT22;21729;58.392;15.656;2024-03-08T13:24:53;5.90;99.90
35607;DHT22;21729;58.392;15.656;2024-03-08T13:27:22;5.90;99.90
35607;DHT22;21729;58.392;15.656;2024-03-08T13:29:50;5.90;99.90
35607;DHT22;21729;58.392;15.656;2024-03-08T13:32:17;5.90;99.90
35607;DHT22;21729;58.392;15.656;2024-03-08T13:34:46;5.90;99.90
35607;DHT22;21729;58.392;15.656;2024-03-08T13:37:16;5.90;99.90
35607;DHT22;21729;58.392;15.656;2024-03-08T13:39:44;5.80;99.90
35607;DHT22;21729;58.392;15.656;2024-03-08T13:42:11;5.80;99.90
35607;DHT22;21729;58.392;15.656;2024-03-08T13:44:45;5.90;99.90
35607;DHT22;21729;58.392;15.656;2024-03-08T13:47:13;5.70;99.90
35607;DHT22;21729;58.392;15.656;2024-03-08T13:49:40;5.70;1.00
35607;DHT22;21729;58.392;15.656;2024-03-08T13:52:09;5.90;99.90
35607;DHT22;21729;58.392;15.656;2024-03-08T13:54:36;6.00;99.90
35607;DHT22;21729;58.392;15.656;2024-03-08T13:57:04;5.80;99.90
35607;DHT22;21729;58.392;15.656;2024-03-08T13:59:32;5.70;99.90
35607;DHT22;21729;58.392;15.656;2024-03-08T14:02:02;5.60;99.90
35607;DHT22;21729;58.392;15.656;2024-03-08T14:04:30;5.80;99.90
35607;DHT22;21729;58.392;15.656;2024-03-08T14:06:57;5.80;99.90
35607;DHT22;21729;58.392;15.656;2024-03-08T14:09:29;5.70;99.90
35607;DHT22;21729;58.392;15.656;2024-03-08T14:11:56;5.60;99.90
35607;DHT22;21729;58.392;15.656;2024-03-08T14:14:24;5.70;99.90
35607;DHT22;21729;58.392;15.656;2024-03-08T14:16:51;5.70;99.90
35607;DHT22;21729;58.392;15.656;2024-03-08T14:19:22;5.70;99.90
35607;DHT22;21729;58.392;15.656;2024-03-08T14:21:49;5.80;99.90
35607;DHT22;21729;58.392;15.656;2024-03-08T14:24:19;5.80;99.90
35607;DHT22;21729;58.392;15.656;2024-03-08T14:26:46;5.70;99.90
35607;DHT22;21729;58.392;15.656;2024-03-08T14:29:14;5.60;99.90
35607;DHT22;21729;58.392;15.656;2024-03-08T14:31:41;5.70;99.90
35607;DHT22;21729;58.392;15.656;2024-03-08T14:34:08;5.80;99.90
35607;DHT22;21729;58.392;15.656;2024-03-08T14:36:37;5.70;99.90
35607;DHT22;21729;58.392;15.656;2024-03-08T14:39:04;5.60;99.90
35607;DHT22;21729;58.392;15.656;2024-03-08T14:41:33;5.60;99.90
35607;DHT22;21729;58.392;15.656;2024-03-08T14:44:00;5.50;99.90
35607;DHT22;21729;58.392;15.656;2024-03-08T14:46:27;5.50;99.90
35607;DHT22;21729;58.392;15.656;2024-03-08T14:48:54;5.50;99.90
35607;DHT22;21729;58.392;15.656;2024-03-08T14:51:22;5.60;99.90
35607;DHT22;21729;58.392;15.656;2024-03-08T14:53:53;5.60;99.90
35607;DHT22;21729;58.392;15.656;2024-03-08T14:56:21;5.60;99.90
35607;DHT22;21729;58.392;15.656;2024-03-08T14:58:48;5.60;99.90
35607;DHT22;21729;58.392;15.656;2024-03-08T15:01:17;5.60;99.90
35607;DHT22;21729;58.392;15.656;2024-03-08T15:03:48;5.50;99.90
35607;DHT22;21729;58.392;15.656;2024-03-08T15:06:15;5.50;99.90
35607;DHT22;21729;58.392;15.656;2024-03-08T15:08:47;5.60;99.90
35607;DHT22;21729;58.392;15.656;2024-03-08T15:11:15;5.40;99.90
35607;DHT22;21729;58.392;15.656;2024-03-08T15:13:47;5.50;99.90
35607;DHT22;21729;58.392;15.656;2024-03-08T15:16:17;5.50;99.90
35607;DHT22;21729;58.392;15.656;2024-03-08T15:18:44;5.50;99.90
35607;DHT22;21729;58.392;15.656;2024-03-08T15:21:14;5.40;99.90
35607;DHT22;21729;58.392;15.656;2024-03-08T15:23:44;5.30;99.90
35607;DHT22;21729;58.392;15.656;2024-03-08T15:26:17;5.30;99.90
35607;DHT22;21729;58.392;15.656;2024-03-08T15:28:44;5.30;1.40
35607;DHT22;21729;58.392;15.656;2024-03-08T15:31:13;5.20;1.00
35607;DHT22;21729;58.392;15.656;2024-03-08T15:33:40;5.20;1.00